createdAt,value
2022-10-05T00:02:56.315Z,83.96
2022-10-05T00:06:33.742Z,83.93
2022-10-05T00:10:16.808Z,83.81
2022-10-05T00:13:53.034Z,83.64
2022-10-05T00:17:32.549Z,83.47
2022-10-05T00:21:20.154Z,83.43
2022-10-05T00:24:58.893Z,83.37
2022-10-05T00:28:34.265Z,83.33
2022-10-05T00:32:11.115Z,83.32
2022-10-05T00:35:47.714Z,83.32
2022-10-05T00:39:24.489Z,83.33
2022-10-05T00:43:49.472Z,83.32
2022-10-05T00:47:31.703Z,83.34
2022-10-05T00:51:27.032Z,83.35
2022-10-05T00:55:36.806Z,83.43
2022-10-05T00:59:59.440Z,83.36
2022-10-05T01:03:40.533Z,83.45
2022-10-05T01:07:29.746Z,83.32
2022-10-05T01:11:14.868Z,83.30
2022-10-05T01:14:56.432Z,83.23
2022-10-05T01:19:10.245Z,83.26
2022-10-05T01:22:52.696Z,83.14
2022-10-05T01:26:49.624Z,83.02
2022-10-05T01:30:25.151Z,82.92
2022-10-05T01:34:30.741Z,82.87
2022-10-05T01:38:20.799Z,82.80
2022-10-05T01:42:02.770Z,82.84
2022-10-05T01:46:04.237Z,82.82
2022-10-05T01:49:58.269Z,82.77
2022-10-05T01:53:50.185Z,82.83
2022-10-05T01:57:31.351Z,82.90
2022-10-05T02:01:30.988Z,82.84
2022-10-05T02:05:12.834Z,82.74
2022-10-05T02:08:54.934Z,82.87
2022-10-05T02:12:37.423Z,82.87
2022-10-05T02:16:26.249Z,82.90
2022-10-05T02:20:07.972Z,83.15
2022-10-05T02:23:46.225Z,83.23
2022-10-05T02:27:38.958Z,83.32
2022-10-05T02:31:38.583Z,83.50
2022-10-05T02:35:17.159Z,84.00
2022-10-05T02:38:52.313Z,84.46
2022-10-05T02:42:39.414Z,84.86
2022-10-05T02:46:17.623Z,85.01
2022-10-05T02:50:12.589Z,85.52
2022-10-05T02:53:48.847Z,85.82
2022-10-05T02:57:45.283Z,85.82
2022-10-05T03:01:42.735Z,85.94
2022-10-05T03:05:20.837Z,86.00
2022-10-05T03:09:10.137Z,86.14
2022-10-05T03:12:58.396Z,86.21
2022-10-05T03:16:43.956Z,86.11
2022-10-05T03:20:28.542Z,86.14
2022-10-05T03:24:23.072Z,86.36
2022-10-05T03:28:05.724Z,86.21
2022-10-05T03:31:51.653Z,86.33
2022-10-05T03:35:51.859Z,86.53
2022-10-05T03:39:22.853Z,86.62
2022-10-05T03:43:24.115Z,86.68
2022-10-05T03:47:09.156Z,86.81
2022-10-05T03:51:06.272Z,86.91
2022-10-05T03:54:54.903Z,87.21
2022-10-05T03:58:56.445Z,87.29
2022-10-05T04:02:51.165Z,87.49
2022-10-05T04:06:36.363Z,87.85
2022-10-05T04:10:48.388Z,87.88
2022-10-05T04:14:46.598Z,87.83
2022-10-05T04:18:23.537Z,87.91
2022-10-05T04:22:22.871Z,87.95
2022-10-05T04:25:46.893Z,88.04
2022-10-05T04:29:22.158Z,88.19
2022-10-05T04:33:00.908Z,88.34
2022-10-05T04:36:49.750Z,88.68
2022-10-05T04:40:48.702Z,88.53
2022-10-05T04:44:44.175Z,88.53
2022-10-05T04:49:08.543Z,88.56
2022-10-05T04:52:51.538Z,88.64
2022-10-05T04:57:19.932Z,88.96
2022-10-05T05:01:37.970Z,89.25
2022-10-05T05:06:16.282Z,89.31
2022-10-05T05:10:34.638Z,89.33
2022-10-05T05:14:49.508Z,89.26
2022-10-05T05:18:58.533Z,89.50
2022-10-05T05:23:17.991Z,89.40
2022-10-05T05:27:33.205Z,89.43
2022-10-05T05:32:03.334Z,89.42
2022-10-05T05:36:31.825Z,89.19
2022-10-05T05:40:34.003Z,89.03
2022-10-05T05:44:55.743Z,88.95
2022-10-05T05:48:56.449Z,88.69
2022-10-05T05:53:12.914Z,88.51
2022-10-05T05:57:35.053Z,88.45
2022-10-05T06:01:42.025Z,88.42
2022-10-05T06:05:26.963Z,88.27
2022-10-05T06:09:18.305Z,88.20
2022-10-05T06:13:00.903Z,87.86
2022-10-05T06:16:46.775Z,87.81
2022-10-05T06:20:36.288Z,87.37
2022-10-05T06:24:23.483Z,87.19
2022-10-05T06:28:04.989Z,87.10
2022-10-05T06:32:14.789Z,86.85
2022-10-05T06:35:37.932Z,86.70
2022-10-05T06:39:22.518Z,86.48
2022-10-05T06:43:15.468Z,86.12
2022-10-05T06:46:56.935Z,85.73
2022-10-05T06:50:46.219Z,85.12
2022-10-05T06:54:27.609Z,84.58
2022-10-05T06:58:13.844Z,84.09
2022-10-05T07:01:58.832Z,83.47
2022-10-05T07:06:03.860Z,82.51
2022-10-05T07:10:09.480Z,82.19
2022-10-05T07:13:57.357Z,81.81
2022-10-05T07:17:52.797Z,81.71
2022-10-05T07:21:54.412Z,80.98
2022-10-05T07:25:41.160Z,80.00
2022-10-05T07:29:38.088Z,80.27
2022-10-05T07:33:23.345Z,79.72
2022-10-05T07:37:32.059Z,79.13
2022-10-05T07:41:15.713Z,77.78
2022-10-05T07:45:02.447Z,76.22
2022-10-05T07:48:55.809Z,76.54
2022-10-05T07:52:35.119Z,75.10
2022-10-05T07:56:41.135Z,75.22
2022-10-05T08:00:26.336Z,75.14
2022-10-05T08:04:10.026Z,74.13
2022-10-05T08:07:48.348Z,74.47
2022-10-05T08:11:33.897Z,73.75
2022-10-05T08:15:17.152Z,72.78
2022-10-05T08:19:19.022Z,70.74
2022-10-05T08:23:22.300Z,69.86
2022-10-05T08:27:11.088Z,70.15
2022-10-05T08:31:03.528Z,67.62
2022-10-05T08:34:49.879Z,64.97
2022-10-05T08:38:33.729Z,64.94
2022-10-05T08:42:56.169Z,65.67
2022-10-05T08:46:54.653Z,66.45
2022-10-05T08:50:50.224Z,66.32
2022-10-05T08:54:38.614Z,66.16
2022-10-05T08:58:40.291Z,66.00
2022-10-05T09:02:51.905Z,65.95
2022-10-05T09:07:04.063Z,65.85
2022-10-05T09:10:43.539Z,65.26
2022-10-05T09:14:27.331Z,64.79
2022-10-05T09:18:33.527Z,64.48
2022-10-05T09:22:38.481Z,65.56
2022-10-05T09:26:42.713Z,65.71
2022-10-05T09:30:57.180Z,65.87
2022-10-05T09:34:51.232Z,64.74
2022-10-05T09:38:36.618Z,64.58
2022-10-05T09:42:23.461Z,64.34
2022-10-05T09:46:07.745Z,64.08
2022-10-05T09:49:49.005Z,63.60
2022-10-05T09:53:57.243Z,62.36
2022-10-05T09:57:35.308Z,61.45
2022-10-05T10:01:41.229Z,61.56
2022-10-05T10:05:47.835Z,58.79
2022-10-05T10:10:01.308Z,59.20
2022-10-05T10:14:01.170Z,58.59
2022-10-05T10:18:02.260Z,56.64
2022-10-05T10:22:06.818Z,57.86
2022-10-05T10:26:02.391Z,57.25
2022-10-05T10:30:03.769Z,54.34
2022-10-05T10:34:17.914Z,53.03
2022-10-05T10:37:53.150Z,52.57
2022-10-05T10:42:02.080Z,53.66
2022-10-05T10:45:48.764Z,54.98
2022-10-05T10:49:56.018Z,55.80
2022-10-05T10:53:52.995Z,55.77
2022-10-05T10:58:03.698Z,54.83
2022-10-05T11:01:48.454Z,53.55
2022-10-05T11:05:38.909Z,54.29
2022-10-05T11:09:17.015Z,55.37
2022-10-05T11:12:55.193Z,56.42
2022-10-05T11:17:06.910Z,56.63
2022-10-05T11:20:49.393Z,56.18
2022-10-05T11:24:34.513Z,56.34
2022-10-05T11:28:33.138Z,56.21
2022-10-05T11:32:48.700Z,56.41
2022-10-05T11:36:51.918Z,55.65
2022-10-05T11:40:47.812Z,55.14
2022-10-05T11:44:43.254Z,54.21
2022-10-05T11:48:48.204Z,51.33
2022-10-05T11:52:48.086Z,50.21
2022-10-05T11:56:42.431Z,49.58
2022-10-05T12:00:22.934Z,50.88
2022-10-05T12:04:26.413Z,52.53
2022-10-05T12:08:07.508Z,53.64
2022-10-05T12:12:11.017Z,53.14
2022-10-05T12:15:48.524Z,52.22
2022-10-05T12:19:42.362Z,52.37
2022-10-05T12:23:27.651Z,52.43
2022-10-05T12:27:23.275Z,53.54
2022-10-05T12:31:21.557Z,53.46
2022-10-05T12:35:06.290Z,53.74
2022-10-05T12:39:08.586Z,53.65
2022-10-05T12:43:05.026Z,54.39
2022-10-05T12:46:53.574Z,54.92
2022-10-05T12:50:40.438Z,55.03
2022-10-05T12:54:42.647Z,54.94
2022-10-05T12:58:20.805Z,56.14
2022-10-05T13:02:11.244Z,56.14
2022-10-05T13:05:52.520Z,56.33
2022-10-05T13:09:44.857Z,56.53
2022-10-05T13:13:34.088Z,56.57
2022-10-05T13:17:22.413Z,56.46
2022-10-05T13:21:26.750Z,56.15
2022-10-05T13:25:23.253Z,56.39
2022-10-05T13:29:18.886Z,55.54
2022-10-05T13:33:24.493Z,55.55
2022-10-05T13:37:24.751Z,56.88
2022-10-05T13:41:36.502Z,57.57
2022-10-05T13:45:24.767Z,57.34
2022-10-05T13:49:12.485Z,57.97
2022-10-05T13:53:24.113Z,58.42
2022-10-05T13:57:26.008Z,59.30
2022-10-05T14:01:09.085Z,59.56
2022-10-05T14:05:00.132Z,59.78
2022-10-05T14:08:48.636Z,60.19
2022-10-05T14:12:24.266Z,60.96
2022-10-05T14:16:18.558Z,61.95
2022-10-05T14:20:00.233Z,62.27
2022-10-05T14:23:36.292Z,62.47
2022-10-05T14:27:31.231Z,62.72
2022-10-05T14:31:27.575Z,63.13
2022-10-05T14:35:18.232Z,63.34
2022-10-05T14:39:02.309Z,63.99
2022-10-05T14:42:47.157Z,64.30
2022-10-05T14:46:27.937Z,64.68
2022-10-05T14:50:26.404Z,64.76
2022-10-05T14:54:15.411Z,65.07
2022-10-05T14:57:50.718Z,65.80
2022-10-05T15:01:35.466Z,66.14
2022-10-05T15:05:26.917Z,66.54
2022-10-05T15:09:39.897Z,66.92
2022-10-05T15:13:41.748Z,67.57
2022-10-05T15:17:26.445Z,68.00
2022-10-05T15:21:24.081Z,68.39
2022-10-05T15:25:08.342Z,68.98
2022-10-05T15:28:51.891Z,69.42
2022-10-05T15:32:42.985Z,69.95
2022-10-05T15:36:35.673Z,70.28
2022-10-05T15:40:37.003Z,70.78
2022-10-05T15:44:40.248Z,71.32
2022-10-05T15:48:29.730Z,71.71
2022-10-05T15:52:17.962Z,72.05
2022-10-05T15:56:04.318Z,72.36
2022-10-05T16:00:01.568Z,72.38
2022-10-05T16:03:58.265Z,72.84
2022-10-05T16:08:06.587Z,73.28
2022-10-05T16:11:52.063Z,73.55
2022-10-05T16:15:42.214Z,73.76
2022-10-05T16:19:46.595Z,74.14
2022-10-05T16:23:48.647Z,74.52
2022-10-05T16:28:05.285Z,74.85
2022-10-05T16:31:58.151Z,75.18
2022-10-05T16:35:44.704Z,75.39
2022-10-05T16:40:00.218Z,75.52
2022-10-05T16:42:35.148Z,75.62
2022-10-05T16:45:22.354Z,75.91
2022-10-05T16:48:29.025Z,76.14
2022-10-05T16:51:15.356Z,76.04
2022-10-05T16:54:02.112Z,76.23
2022-10-05T16:57:44.828Z,76.35
2022-10-05T17:01:42.786Z,76.54
2022-10-05T17:05:42.511Z,76.73
2022-10-05T17:09:37.804Z,76.96
2022-10-05T17:13:30.195Z,77.21
2022-10-05T17:17:33.528Z,77.36
2022-10-05T17:21:35.017Z,77.50
2022-10-05T17:25:49.576Z,77.57
2022-10-05T17:29:42.945Z,77.71
2022-10-05T17:33:22.053Z,77.90
2022-10-05T17:37:15.719Z,78.26
2022-10-05T17:41:00.227Z,78.32
2022-10-05T17:44:36.219Z,78.65
2022-10-05T17:48:41.455Z,78.85
2022-10-05T17:52:46.613Z,79.06
2022-10-05T17:56:24.034Z,79.15
2022-10-05T18:00:03.100Z,79.19
2022-10-05T18:04:04.349Z,79.29
2022-10-05T18:07:49.693Z,79.25
2022-10-05T18:11:30.942Z,79.09
2022-10-05T18:15:07.230Z,78.99
2022-10-05T18:18:43.054Z,78.98
2022-10-05T18:22:30.552Z,78.74
2022-10-05T18:26:30.280Z,78.37
2022-10-05T18:30:20.604Z,78.32
2022-10-05T18:34:14.509Z,78.25
2022-10-05T18:37:52.644Z,77.79
2022-10-05T18:42:12.576Z,77.55
2022-10-05T18:46:08.399Z,77.14
2022-10-05T18:50:05.733Z,76.83
2022-10-05T18:53:57.543Z,76.63
2022-10-05T18:57:55.404Z,76.25
2022-10-05T19:02:03.481Z,76.06
2022-10-05T19:05:49.468Z,75.76
2022-10-05T19:10:03.321Z,75.72
2022-10-05T19:13:56.153Z,75.46
2022-10-05T19:17:54.754Z,75.34
2022-10-05T19:21:54.013Z,75.19
2022-10-05T19:26:06.223Z,74.85
2022-10-05T19:29:47.532Z,74.56
2022-10-05T19:33:42.429Z,74.60
2022-10-05T19:37:37.078Z,74.80
2022-10-05T19:41:32.086Z,74.88
2022-10-05T19:45:26.155Z,75.06
2022-10-05T19:49:01.488Z,75.33
2022-10-05T19:52:46.251Z,75.73
2022-10-05T19:56:31.365Z,76.29
2022-10-05T20:00:07.954Z,76.92
2022-10-05T20:03:47.878Z,77.34
2022-10-05T20:07:23.865Z,78.14
2022-10-05T20:11:04.291Z,78.53
2022-10-05T20:14:59.858Z,78.90
2022-10-05T20:18:56.630Z,79.18
2022-10-05T20:22:46.751Z,79.33
2022-10-05T20:27:05.470Z,79.74
2022-10-05T20:30:42.079Z,80.16
2022-10-05T20:34:18.672Z,80.40
2022-10-05T20:37:59.661Z,80.58
2022-10-05T20:41:36.352Z,80.78
2022-10-05T20:45:13.041Z,80.97
2022-10-05T20:48:48.591Z,81.31
2022-10-05T20:52:25.353Z,81.36
2022-10-05T20:56:04.771Z,81.56
2022-10-05T20:59:40.406Z,81.96
2022-10-05T21:03:19.073Z,81.97
2022-10-05T21:06:54.614Z,82.04
2022-10-05T21:10:31.233Z,82.22
2022-10-05T21:14:10.416Z,82.51
2022-10-05T21:17:45.783Z,82.78
2022-10-05T21:21:27.473Z,82.96
2022-10-05T21:25:02.814Z,83.12
2022-10-05T21:28:40.323Z,83.28
2022-10-05T21:32:16.378Z,83.59
2022-10-05T21:36:14.304Z,83.85
2022-10-05T21:39:35.344Z,84.04
2022-10-05T21:43:10.716Z,84.16
2022-10-05T21:46:48.548Z,84.45
2022-10-05T21:50:26.052Z,84.53
2022-10-05T21:54:08.504Z,84.76
2022-10-05T21:57:46.712Z,84.77
2022-10-05T22:01:23.090Z,84.99
2022-10-05T22:04:59.024Z,85.11
2022-10-05T22:08:35.737Z,85.43
2022-10-05T22:12:13.533Z,85.76
2022-10-05T22:15:49.432Z,86.10
2022-10-05T22:19:26.355Z,86.37
2022-10-05T22:23:04.655Z,86.55
2022-10-05T22:26:42.470Z,86.78
2022-10-05T22:30:18.683Z,87.16
2022-10-05T22:33:54.725Z,87.33
2022-10-05T22:37:34.228Z,87.45
2022-10-05T22:41:11.374Z,87.88
2022-10-05T22:44:47.021Z,88.12
2022-10-05T22:48:23.564Z,88.29
2022-10-05T22:52:01.351Z,88.42
2022-10-05T22:55:38.254Z,88.49
2022-10-05T22:59:14.033Z,88.74
2022-10-05T23:02:50.794Z,88.81
2022-10-05T23:06:28.654Z,88.96
2022-10-05T23:10:07.464Z,88.96
2022-10-05T23:13:43.058Z,88.94
2022-10-05T23:17:22.283Z,89.12
2022-10-05T23:20:57.537Z,89.07
2022-10-05T23:24:35.913Z,89.12
2022-10-05T23:28:11.141Z,89.18
2022-10-05T23:31:47.939Z,89.26
2022-10-05T23:35:24.803Z,89.45
2022-10-05T23:39:01.802Z,89.58
2022-10-05T23:42:40.082Z,89.49
2022-10-05T23:46:16.471Z,89.72
2022-10-05T23:49:52.216Z,89.68
2022-10-05T23:53:28.964Z,89.73
2022-10-05T23:57:05.789Z,89.83
